Главная страница
METAR-TAF:

METAR-TAF

Аэропорты :

Грозный, Россия

широта: 43-23-18N, долгота: 045-41-59E, высота над уровнем моря: 167 м

Текущие метеонаблюдения

Эта сводка был подготовлена 23 минут назад, в 06:00 UTC
Ветер 4 Узел от восточный, изменяющийся между северо-восточный и южный-юго-западный
Температура 28°C
Влажность 51%
Давление 1009 hPa
Видимость 10 км и более
Нет облачности ниже 1500 м, и нет кучево-дождевой облачности

METAR: URMG 230600Z 09002MPS 050V200 CAVOK 28/17 Q1009 R26/000070 NOSIG RMK QFE742/0989

Время: 09:23 (06:23 UTC)

Прогноз

Эта сводка был подготовлена 1 час и 23 минут назад, в 05:00 UTC
Прогноз действительный с 23-го 06 UTC до 23-го 15 UTC
Ветер 12 Узел от восточный
Видимость 10 км и более
Отдельные облака на высоте 3000 фута
временами
С 23-го 09 UTC до 23-го 15 UTC
Ветер 16 Узел от восточный с порывами до 27 Узел
Отдельные облака на высоте 3000 фута, Кучево-дождевые.

TAF: URMG 230500Z 2306/2315 09006MPS 9999 SCT030 TEMPO 2309/2315 09008G14MPS SCT030CB

Метеонаблюдения и прогнозы для более 4000 аэропортов (сводки METAR и TAF).

Имеющиеся станции представлены на карте желтыми и красными точками.

Чтобы увидеть название станции, наведите на нее мышь.

Затем щелкните, чтобы увидеть метеонаблюдения и метеопрогнозы.

Управление картой: чтобы увеличить масштаб, щелкните зеленые кнопки с черным крестиком; чтобы уменьшить масштаб, щелкните зеленую кнопку с тире; для просмотра соседних карт щелкайте зеленые стрелки.


METAR-TAF: